Time;durP1;ratioP1;P1;durP2;ratioP2;P2;SDS_P1;SDS_P2;PMS_P1;PMS_P2;Temp;Humidity;BMP_temperature;BMP_pressure;BME280_temperature;BME280_humidity;BME280_pressure;Samples;Min_cycle;Max_cycle;Signal;HPM_P1;HPM_P2
2021/11/14 00:01:20;;;;;;;45.10;32.08;;;9.20;99.90;;;;;;5027721;28;20078;-95
2021/11/14 00:03:48;;;;;;;38.70;30.08;;;9.20;99.90;;;;;;5054267;28;20031;-95
2021/11/14 00:06:14;;;;;;;36.95;28.25;;;9.20;99.90;;;;;;5053758;28;20523;-95
2021/11/14 00:08:40;;;;;;;44.70;34.92;;;9.50;99.90;;;;;;5036196;28;20033;-95
2021/11/14 00:11:10;;;;;;;47.28;36.15;;;9.10;99.90;;;;;;5035812;28;20025;-96
2021/11/14 00:13:38;;;;;;;44.58;33.30;;;9.40;99.90;;;;;;5045487;28;20166;-95
2021/11/14 00:16:04;;;;;;;50.22;35.13;;;9.40;99.90;;;;;;5050364;28;20063;-95
2021/11/14 00:18:29;;;;;;;45.45;33.58;;;9.10;99.90;;;;;;5048464;28;20018;-96
2021/11/14 00:20:55;;;;;;;37.65;28.90;;;9.10;99.90;;;;;;5055306;28;20563;-95
2021/11/14 00:23:21;;;;;;;37.72;28.52;;;9.10;99.90;;;;;;5050066;28;20028;-95
2021/11/14 00:25:47;;;;;;;38.50;27.20;;;9.00;99.90;;;;;;5033110;28;20108;-95
2021/11/14 00:28:12;;;;;;;38.90;30.27;;;9.00;99.90;;;;;;5032444;28;20017;-96
2021/11/14 00:30:39;;;;;;;38.95;29.15;;;9.00;99.90;;;;;;5050356;28;20040;-95
2021/11/14 00:33:05;;;;;;;35.03;27.02;;;9.40;99.90;;;;;;5053077;28;20037;-95
2021/11/14 00:35:31;;;;;;;35.92;28.10;;;9.20;99.90;;;;;;5036498;28;20040;-95
2021/11/14 00:37:57;;;;;;;35.92;29.85;;;9.20;99.90;;;;;;5031975;28;20028;-95
2021/11/14 00:40:26;;;;;;;40.70;30.45;;;9.30;99.90;;;;;;5031118;28;20040;-96
2021/11/14 00:42:53;;;;;;;37.88;27.90;;;9.30;99.90;;;;;;5050791;28;20013;-96
2021/11/14 00:45:19;;;;;;;39.17;29.15;;;9.20;99.90;;;;;;5000482;28;20431;-96
2021/11/14 00:47:45;;;;;;;40.22;31.33;;;9.20;99.90;;;;;;5038119;28;20028;-96
2021/11/14 00:50:12;;;;;;;43.88;33.35;;;9.10;99.90;;;;;;5045606;28;20025;-95
2021/11/14 00:52:42;;;;;;;43.50;32.40;;;9.50;99.90;;;;;;5048175;28;20029;-96
2021/11/14 00:55:09;;;;;;;41.55;31.85;;;9.20;99.90;;;;;;5049963;28;20059;-96
2021/11/14 00:57:35;;;;;;;42.97;31.38;;;9.10;99.90;;;;;;5048340;28;20406;-96
2021/11/14 01:00:03;;;;;;;36.38;29.48;;;9.10;99.90;;;;;;5035679;28;20039;-96
2021/11/14 01:02:28;;;;;;;36.85;27.83;;;9.10;99.90;;;;;;5051349;28;20078;-95
2021/11/14 01:04:54;;;;;;;37.38;28.35;;;9.20;99.90;;;;;;5032212;28;20029;-95
2021/11/14 01:07:20;;;;;;;38.95;29.70;;;9.60;99.90;;;;;;5049802;28;20052;-96
2021/11/14 01:09:45;;;;;;;37.88;29.25;;;9.10;99.90;;;;;;5032436;28;20064;-96
2021/11/14 01:12:11;;;;;;;37.38;28.90;;;9.50;99.90;;;;;;5033830;28;20037;-96
2021/11/14 01:14:37;;;;;;;38.22;29.15;;;9.40;99.90;;;;;;5035097;28;20569;-95
2021/11/14 01:17:03;;;;;;;37.58;29.20;;;9.20;99.90;;;;;;5049705;28;20039;-95
2021/11/14 01:19:29;;;;;;;42.20;30.70;;;9.30;99.90;;;;;;5049429;28;20056;-95
2021/11/14 01:21:55;;;;;;;37.17;30.13;;;9.10;99.90;;;;;;5030565;28;20447;-96
2021/11/14 01:24:21;;;;;;;38.38;29.25;;;9.60;99.90;;;;;;5031705;28;20108;-95
2021/11/14 01:26:46;;;;;;;39.92;29.52;;;9.60;99.90;;;;;;5038776;28;20029;-95
2021/11/14 01:29:12;;;;;;;37.92;28.45;;;9.20;99.90;;;;;;5048718;28;20039;-95
2021/11/14 01:31:38;;;;;;;39.58;29.83;;;9.20;99.90;;;;;;5049255;28;20041;-96
2021/11/14 01:34:04;;;;;;;39.70;31.45;;;9.00;99.90;;;;;;5049742;28;20045;-95
2021/11/14 01:36:33;;;;;;;42.33;31.40;;;9.00;99.90;;;;;;5031259;28;20048;-95
2021/11/14 01:39:01;;;;;;;37.70;29.02;;;9.50;99.90;;;;;;5050739;28;20033;-95
2021/11/14 01:41:27;;;;;;;39.17;29.73;;;9.20;99.90;;;;;;5051888;28;20454;-95
2021/11/14 01:43:53;;;;;;;39.75;29.23;;;9.20;99.90;;;;;;5049610;28;20124;-95
2021/11/14 01:46:19;;;;;;;38.80;30.35;;;9.30;99.90;;;;;;5031781;28;20112;-96
2021/11/14 01:48:47;;;;;;;38.35;30.05;;;9.40;99.90;;;;;;5049036;28;20025;-96
2021/11/14 01:51:12;;;;;;;39.45;30.20;;;9.40;99.90;;;;;;5049553;28;20034;-95
2021/11/14 01:53:39;;;;;;;40.28;30.17;;;9.40;99.90;;;;;;5038591;28;20235;-95
2021/11/14 01:56:08;;;;;;;36.15;28.50;;;9.70;99.90;;;;;;5046548;28;20037;-96
2021/11/14 01:58:34;;;;;;;38.08;29.17;;;9.40;99.90;;;;;;5031719;28;20028;-95
2021/11/14 02:01:08;;;;;;;37.85;29.02;;;9.40;99.90;;;;;;5031857;28;20024;-95
2021/11/14 02:03:37;;;;;;;42.22;29.52;;;9.90;99.90;;;;;;5029813;28;20398;-95
2021/11/14 02:06:04;;;;;;;40.35;30.83;;;9.30;99.90;;;;;;5033878;28;20382;-95
2021/11/14 02:08:30;;;;;;;39.35;29.23;;;9.20;99.90;;;;;;5052180;28;20386;-95
2021/11/14 02:10:57;;;;;;;37.28;28.90;;;9.30;99.90;;;;;;5048616;28;20033;-95
2021/11/14 02:13:23;;;;;;;37.35;29.17;;;9.30;99.90;;;;;;5048010;28;20025;-96
2021/11/14 02:15:49;;;;;;;34.83;29.00;;;9.70;99.90;;;;;;5026833;28;20037;-96
2021/11/14 02:18:15;;;;;;;35.88;27.75;;;9.30;99.90;;;;;;5049197;28;20032;-95
2021/11/14 02:20:44;;;;;;;35.67;28.85;;;9.70;99.90;;;;;;5035830;28;20058;-95
2021/11/14 02:23:11;;;;;;;38.78;28.17;;;9.40;99.90;;;;;;5030516;28;20120;-95
2021/11/14 02:25:37;;;;;;;38.33;29.08;;;9.40;99.90;;;;;;5048222;28;20040;-95
2021/11/14 02:28:04;;;;;;;40.10;29.55;;;9.40;99.90;;;;;;5030661;28;20396;-95
2021/11/14 02:30:30;;;;;;;36.25;28.67;;;9.40;99.90;;;;;;5028278;28;20537;-95
2021/11/14 02:32:56;;;;;;;34.58;28.02;;;9.80;99.90;;;;;;5035311;28;20053;-95
2021/11/14 02:35:24;;;;;;;37.03;29.15;;;9.40;99.90;;;;;;5031217;28;20067;-95
2021/11/14 02:37:50;;;;;;;40.22;29.50;;;9.70;99.90;;;;;;5048361;28;20023;-95
2021/11/14 02:40:17;;;;;;;37.38;28.75;;;9.40;99.90;;;;;;5031915;28;20535;-96
2021/11/14 02:42:46;;;;;;;39.45;29.35;;;9.70;99.90;;;;;;5046549;28;20374;-96
2021/11/14 02:45:13;;;;;;;40.38;29.02;;;9.40;99.90;;;;;;5048986;28;20034;-95
2021/11/14 02:47:39;;;;;;;40.10;29.63;;;9.40;99.90;;;;;;5052062;28;20044;-95
2021/11/14 02:50:07;;;;;;;35.63;28.42;;;9.40;99.90;;;;;;5020592;28;20474;-95
2021/11/14 02:52:33;;;;;;;37.65;30.08;;;9.40;99.90;;;;;;5028734;28;20082;-95
2021/11/14 02:54:59;;;;;;;37.47;29.60;;;9.40;99.90;;;;;;5028964;28;20071;-95
2021/11/14 02:57:25;;;;;;;40.42;30.75;;;9.80;99.90;;;;;;5027729;28;20061;-95
2021/11/14 02:59:51;;;;;;;39.13;31.02;;;9.30;99.90;;;;;;5046151;28;20056;-96
2021/11/14 03:02:17;;;;;;;40.75;30.92;;;9.20;99.90;;;;;;5047710;28;20489;-95
2021/11/14 03:04:43;;;;;;;41.13;31.33;;;9.20;99.90;;;;;;5029528;28;20512;-95
2021/11/14 03:07:09;;;;;;;39.67;31.23;;;9.20;99.90;;;;;;5046260;28;20025;-95
2021/11/14 03:09:35;;;;;;;38.95;31.00;;;9.20;99.90;;;;;;5030727;28;20022;-95
2021/11/14 03:12:02;;;;;;;41.58;31.30;;;9.20;99.90;;;;;;5051092;28;20065;-96
2021/11/14 03:14:28;;;;;;;39.58;31.50;;;9.30;99.90;;;;;;5032523;28;20035;-95
2021/11/14 03:16:54;;;;;;;40.92;30.85;;;9.50;99.90;;;;;;5030007;28;20033;-96
2021/11/14 03:19:20;;;;;;;40.08;30.02;;;9.30;99.90;;;;;;5046888;28;20032;-95
2021/11/14 03:21:48;;;;;;;40.63;29.63;;;9.30;99.90;;;;;;5029547;28;20074;-96
2021/11/14 03:24:15;;;;;;;38.28;29.70;;;9.50;99.90;;;;;;5029845;28;20606;-95
2021/11/14 03:26:41;;;;;;;41.63;31.05;;;9.30;99.90;;;;;;5034017;28;20515;-95
2021/11/14 03:29:06;;;;;;;38.03;29.98;;;9.30;99.90;;;;;;5027915;28;20108;-95
2021/11/14 03:31:32;;;;;;;46.90;31.65;;;9.40;99.90;;;;;;5028616;28;20051;-95
2021/11/14 03:33:58;;;;;;;51.30;32.78;;;9.40;99.90;;;;;;5029579;28;20044;-95
2021/11/14 03:36:25;;;;;;;55.55;33.30;;;9.30;99.90;;;;;;5030562;28;20034;-95
2021/11/14 03:38:56;;;;;;;58.97;33.83;;;9.80;99.90;;;;;;5031515;28;20029;-95
2021/11/14 03:41:28;;;;;;;76.97;38.80;;;9.30;99.90;;;;;;5030647;28;20476;-95
2021/11/14 03:43:55;;;;;;;69.28;37.45;;;9.30;99.90;;;;;;5028909;28;20044;-95
2021/11/14 03:46:22;;;;;;;73.50;38.00;;;9.30;99.90;;;;;;5045552;28;20119;-95
2021/11/14 03:48:49;;;;;;;74.47;37.00;;;9.50;99.90;;;;;;5047172;28;20032;-95
2021/11/14 03:51:17;;;;;;;73.65;37.55;;;9.30;99.90;;;;;;5052262;28;20116;-95
2021/11/14 03:53:43;;;;;;;83.57;42.08;;;9.30;99.90;;;;;;5056781;28;20025;-95
2021/11/14 03:56:09;;;;;;;74.15;39.75;;;9.40;99.90;;;;;;5022479;28;20040;-95
2021/11/14 03:58:36;;;;;;;72.22;39.17;;;9.20;99.90;;;;;;5050885;28;20029;-95
2021/11/14 04:01:07;;;;;;;61.30;37.40;;;9.70;99.90;;;;;;5050831;28;20021;-95
2021/11/14 04:03:34;;;;;;;58.78;36.30;;;9.30;99.90;;;;;;5049921;28;20032;-95
2021/11/14 04:06:00;;;;;;;61.00;37.00;;;9.20;99.90;;;;;;5055350;28;20087;-94
2021/11/14 04:08:27;;;;;;;64.85;37.15;;;9.20;99.90;;;;;;5050981;28;20033;-95
2021/11/14 04:10:56;;;;;;;61.58;35.97;;;9.10;99.90;;;;;;5048946;28;20108;-94
2021/11/14 04:13:22;;;;;;;62.35;36.25;;;9.30;99.90;;;;;;5050926;28;20029;-95
2021/11/14 04:15:48;;;;;;;60.80;36.53;;;9.10;99.90;;;;;;5049239;28;20481;-94
2021/11/14 04:18:15;;;;;;;62.85;37.28;;;9.10;99.90;;;;;;5033130;28;20029;-94
2021/11/14 04:20:42;;;;;;;62.40;36.30;;;9.50;99.90;;;;;;5036831;28;20037;-94
2021/11/14 04:23:09;;;;;;;59.90;37.17;;;9.00;99.90;;;;;;5050440;28;20044;-94
2021/11/14 04:25:36;;;;;;;59.85;37.72;;;9.00;99.90;;;;;;5050366;28;20051;-95
2021/11/14 04:28:02;;;;;;;69.40;38.55;;;9.00;99.90;;;;;;5030839;28;20032;-95
2021/11/14 04:30:29;;;;;;;67.70;37.92;;;9.00;99.90;;;;;;5048457;28;20033;-94
2021/11/14 04:32:56;;;;;;;64.22;39.08;;;9.00;99.90;;;;;;5037976;28;20079;-94
2021/11/14 04:35:22;;;;;;;58.47;36.70;;;9.00;99.90;;;;;;5049835;28;20048;-94
2021/11/14 04:37:48;;;;;;;55.42;37.42;;;9.00;99.90;;;;;;5031873;28;20115;-95
2021/11/14 04:40:15;;;;;;;50.88;34.75;;;9.20;99.90;;;;;;5049984;28;20044;-95
2021/11/14 04:42:41;;;;;;;56.65;36.55;;;9.00;99.90;;;;;;5050546;28;20030;-94
2021/11/14 04:45:07;;;;;;;59.13;37.58;;;9.00;99.90;;;;;;5034112;28;20121;-95
2021/11/14 04:47:33;;;;;;;51.58;34.92;;;8.90;99.90;;;;;;5035106;28;20033;-94
2021/11/14 04:49:59;;;;;;;52.85;34.45;;;8.90;99.90;;;;;;5031236;28;20032;-95
2021/11/14 04:52:25;;;;;;;53.33;35.25;;;8.90;99.90;;;;;;5032847;28;20025;-94
2021/11/14 04:54:50;;;;;;;55.67;35.75;;;8.90;99.90;;;;;;5030112;28;20481;-94
2021/11/14 04:57:16;;;;;;;55.80;35.90;;;8.90;99.90;;;;;;5032640;28;20095;-95
2021/11/14 04:59:42;;;;;;;55.83;34.90;;;9.30;99.90;;;;;;5037052;28;20033;-94
2021/11/14 05:02:07;;;;;;;57.80;33.58;;;8.90;99.90;;;;;;5030180;28;20494;-94
2021/11/14 05:04:33;;;;;;;63.47;36.13;;;9.00;99.90;;;;;;5047743;28;20029;-94
2021/11/14 05:06:59;;;;;;;67.63;35.47;;;9.00;99.90;;;;;;5049409;28;20093;-94
2021/11/14 05:09:24;;;;;;;66.38;37.17;;;8.90;99.90;;;;;;5049923;28;20029;-94
2021/11/14 05:11:50;;;;;;;69.15;35.75;;;8.90;99.90;;;;;;5056376;28;20025;-95
2021/11/14 05:14:16;;;;;;;67.63;36.55;;;9.00;99.90;;;;;;5045296;28;20036;-95
2021/11/14 05:16:41;;;;;;;68.45;36.25;;;9.00;99.90;;;;;;5031667;28;20374;-95
2021/11/14 05:19:07;;;;;;;71.93;36.15;;;8.90;99.90;;;;;;5031759;28;20029;-94
2021/11/14 05:21:32;;;;;;;68.20;36.72;;;8.90;99.90;;;;;;5031846;28;20032;-95
2021/11/14 05:23:58;;;;;;;69.53;36.08;;;9.50;99.90;;;;;;5037042;28;20094;-95
2021/11/14 05:26:23;;;;;;;71.95;37.00;;;9.00;99.90;;;;;;5033330;28;20440;-96
2021/11/14 05:28:49;;;;;;;74.88;38.17;;;9.00;99.90;;;;;;5047103;28;20021;-95
2021/11/14 05:31:15;;;;;;;73.18;36.92;;;9.20;99.90;;;;;;5047563;28;20032;-94
2021/11/14 05:33:41;;;;;;;64.72;35.60;;;9.40;99.90;;;;;;5047877;28;20048;-94
2021/11/14 05:36:06;;;;;;;64.45;34.90;;;9.40;99.90;;;;;;5051448;28;20037;-94
2021/11/14 05:38:32;;;;;;;67.15;36.42;;;9.50;99.90;;;;;;5053484;28;20032;-94
2021/11/14 05:40:58;;;;;;;66.80;37.70;;;9.10;99.90;;;;;;5031903;28;20051;-94
2021/11/14 05:43:23;;;;;;;75.57;37.72;;;9.00;99.90;;;;;;5047770;28;20561;-94
2021/11/14 05:45:49;;;;;;;73.88;37.22;;;9.00;99.90;;;;;;5049088;28;20108;-95
2021/11/14 05:48:15;;;;;;;64.22;34.58;;;9.40;99.90;;;;;;5049686;28;20033;-95
2021/11/14 05:50:42;;;;;;;62.58;34.97;;;9.40;99.90;;;;;;5049026;28;20036;-95
2021/11/14 05:53:09;;;;;;;62.97;34.45;;;9.00;99.90;;;;;;5045616;28;20029;-95
2021/11/14 05:55:35;;;;;;;62.97;35.30;;;9.20;99.90;;;;;;5031117;28;20040;-95
2021/11/14 05:58:18;;;;;;;63.17;34.65;;;9.10;99.90;;;;;;5048026;28;20541;-94
2021/11/14 06:01:06;;;;;;;58.00;34.20;;;9.10;99.90;;;;;;5049756;28;20049;-94
2021/11/14 06:03:36;;;;;;;64.05;33.63;;;9.20;99.90;;;;;;5020242;28;20116;-95
2021/11/14 06:06:03;;;;;;;61.30;31.75;;;9.00;99.90;;;;;;5051932;28;20478;-94
2021/11/14 06:08:29;;;;;;;62.58;31.95;;;9.00;99.90;;;;;;5052717;28;20021;-95
2021/11/14 06:10:55;;;;;;;56.55;30.33;;;8.90;99.90;;;;;;5049007;28;20382;-95
2021/11/14 06:13:26;;;;;;;54.67;29.95;;;9.00;99.90;;;;;;5029395;28;20040;-94
2021/11/14 06:15:53;;;;;;;56.75;29.73;;;9.00;99.90;;;;;;5030510;28;20036;-95
2021/11/14 06:18:20;;;;;;;53.10;29.35;;;9.00;99.90;;;;;;5015648;28;20060;-95
2021/11/14 06:20:46;;;;;;;54.80;28.27;;;9.50;99.90;;;;;;5053885;28;20036;-94
2021/11/14 06:23:13;;;;;;;49.83;28.60;;;9.20;99.90;;;;;;5048237;28;20036;-95
2021/11/14 06:25:39;;;;;;;51.97;28.10;;;9.10;99.90;;;;;;5048008;28;20032;-95
2021/11/14 06:28:05;;;;;;;51.85;27.95;;;9.20;99.90;;;;;;5028437;28;20444;-95
2021/11/14 06:30:31;;;;;;;49.22;26.05;;;9.10;99.90;;;;;;5030219;28;20088;-95
2021/11/14 06:32:57;;;;;;;47.10;26.23;;;9.50;99.90;;;;;;5052910;28;20083;-94
2021/11/14 06:35:24;;;;;;;47.15;26.80;;;9.20;99.90;;;;;;5032726;28;20041;-94
2021/11/14 06:37:51;;;;;;;48.13;27.38;;;9.20;99.90;;;;;;5047726;28;20083;-94
2021/11/14 06:40:17;;;;;;;45.63;25.80;;;9.10;99.90;;;;;;5047279;28;20029;-95
2021/11/14 06:42:43;;;;;;;45.45;25.10;;;9.10;99.90;;;;;;5046863;28;20108;-95
2021/11/14 06:45:09;;;;;;;47.10;26.75;;;9.30;99.90;;;;;;5049812;28;20025;-95
2021/11/14 06:47:36;;;;;;;50.78;28.00;;;9.20;99.90;;;;;;5016896;28;20473;-95
2021/11/14 06:50:03;;;;;;;48.05;27.48;;;9.50;99.90;;;;;;5044670;28;20036;-94
2021/11/14 06:52:28;;;;;;;53.80;29.90;;;9.20;99.90;;;;;;5028427;28;20028;-95
2021/11/14 06:54:54;;;;;;;54.25;31.83;;;9.20;99.90;;;;;;5028340;28;20033;-95
2021/11/14 06:57:20;;;;;;;59.20;33.92;;;9.20;99.90;;;;;;5030657;28;20035;-94
2021/11/14 06:59:47;;;;;;;53.55;32.05;;;9.60;99.90;;;;;;5037425;28;20029;-95
2021/11/14 07:02:13;;;;;;;52.25;29.23;;;9.30;99.90;;;;;;5029580;28;20068;-94
2021/11/14 07:04:40;;;;;;;45.78;27.25;;;9.80;99.90;;;;;;5046091;28;20065;-94
2021/11/14 07:07:06;;;;;;;43.10;24.98;;;9.30;99.90;;;;;;5028422;28;20036;-93
2021/11/14 07:09:32;;;;;;;41.20;26.83;;;9.30;99.90;;;;;;5033054;28;20030;-95
2021/11/14 07:11:58;;;;;;;39.42;24.48;;;9.30;99.90;;;;;;5063073;22;20125;-95
2021/11/14 07:14:25;;;;;;;38.83;24.38;;;9.30;99.90;;;;;;5043427;28;20085;-95
2021/11/14 07:16:51;;;;;;;37.25;24.42;;;9.20;99.90;;;;;;5040806;28;20033;-93
2021/11/14 07:19:18;;;;;;;34.33;22.02;;;9.70;99.90;;;;;;5046795;28;20043;-95
2021/11/14 07:21:44;;;;;;;31.30;20.08;;;9.60;99.90;;;;;;5047623;28;20017;-92
2021/11/14 07:24:10;;;;;;;29.48;18.45;;;9.30;99.90;;;;;;5048243;28;20044;-93
2021/11/14 07:26:36;;;;;;;28.45;18.50;;;9.30;99.90;;;;;;5052562;28;20029;-93
2021/11/14 07:29:04;;;;;;;29.50;17.52;;;9.40;99.90;;;;;;5046256;28;20040;-94
2021/11/14 07:31:29;;;;;;;26.45;17.48;;;9.40;99.90;;;;;;5041090;28;20386;-96
2021/11/14 07:33:55;;;;;;;26.95;15.85;;;9.40;99.90;;;;;;5035080;28;20021;-95
2021/11/14 07:36:20;;;;;;;30.20;17.38;;;9.40;99.90;;;;;;5032239;28;20042;-95
2021/11/14 07:38:47;;;;;;;26.95;17.42;;;9.90;99.90;;;;;;5054248;28;20036;-96
2021/11/14 07:41:13;;;;;;;26.90;16.63;;;10.00;99.90;;;;;;5037960;28;20056;-96
2021/11/14 07:43:39;;;;;;;25.25;16.58;;;9.70;99.90;;;;;;5042904;28;20099;-96
2021/11/14 07:46:05;;;;;;;24.02;16.13;;;10.00;99.90;;;;;;5036232;28;20025;-96
2021/11/14 07:48:31;;;;;;;26.70;16.50;;;9.60;99.90;;;;;;5047115;28;20048;-96
2021/11/14 07:50:57;;;;;;;26.38;15.07;;;9.70;99.90;;;;;;5052192;28;20067;-96
2021/11/14 07:53:23;;;;;;;22.27;15.13;;;9.80;99.90;;;;;;5014753;28;20022;-95
2021/11/14 07:55:50;;;;;;;22.45;14.95;;;9.80;99.90;;;;;;5039291;28;20037;-96
2021/11/14 07:58:16;;;;;;;23.58;14.23;;;10.20;99.90;;;;;;5047864;28;20017;-96
2021/11/14 08:00:41;;;;;;;20.13;13.52;;;9.90;99.90;;;;;;5032256;28;20033;-95
2021/11/14 08:03:10;;;;;;;19.45;13.85;;;9.90;99.90;;;;;;5049892;28;20025;-96
2021/11/14 08:05:37;;;;;;;17.77;12.38;;;10.00;99.90;;;;;;5041584;28;20482;-96
2021/11/14 08:08:03;;;;;;;19.02;12.02;;;9.80;99.90;;;;;;5045313;28;20033;-96
2021/11/14 08:10:29;;;;;;;20.67;13.07;;;9.80;99.90;;;;;;5045350;28;20055;-95
2021/11/14 08:12:55;;;;;;;19.50;12.80;;;10.10;99.90;;;;;;5047123;28;20052;-95
2021/11/14 08:15:22;;;;;;;17.90;12.35;;;10.20;99.90;;;;;;5047088;28;20049;-96
2021/11/14 08:17:47;;;;;;;18.70;11.57;;;10.30;99.90;;;;;;5044730;28;20079;-96
2021/11/14 08:20:13;;;;;;;21.15;12.65;;;10.00;99.90;;;;;;5045707;28;20029;-96
2021/11/14 08:22:40;;;;;;;18.40;12.98;;;10.10;99.90;;;;;;5045944;28;20028;-96
2021/11/14 08:25:07;;;;;;;18.08;12.63;;;10.10;99.90;;;;;;5036491;28;20025;-95
2021/11/14 08:27:33;;;;;;;17.73;12.57;;;10.20;99.90;;;;;;5046917;28;20037;-96
2021/11/14 08:30:01;;;;;;;17.15;12.52;;;10.30;99.90;;;;;;5051447;28;20032;-96
2021/11/14 08:32:26;;;;;;;20.08;15.88;;;10.80;99.90;;;;;;5036684;28;20029;-95
2021/11/14 08:34:52;;;;;;;16.67;13.00;;;10.30;99.90;;;;;;5047386;28;20033;-95
2021/11/14 08:37:18;;;;;;;17.60;12.90;;;10.20;99.90;;;;;;5039779;28;20045;-95
2021/11/14 08:39:45;;;;;;;15.02;12.35;;;10.30;99.90;;;;;;5049583;28;20057;-95
2021/11/14 08:42:12;;;;;;;18.25;12.70;;;10.40;99.90;;;;;;5036198;28;20038;-95
2021/11/14 08:44:38;;;;;;;39.83;24.80;;;10.40;99.90;;;;;;5042203;28;20470;-95
2021/11/14 08:47:04;;;;;;;13.65;9.88;;;10.40;99.90;;;;;;5056988;28;20032;-96
2021/11/14 08:49:30;;;;;;;13.38;10.10;;;10.50;99.90;;;;;;5022711;28;20430;-94
2021/11/14 08:51:55;;;;;;;12.52;9.60;;;10.90;99.90;;;;;;5025380;28;20022;-95
2021/11/14 08:54:23;;;;;;;12.25;10.15;;;10.70;99.90;;;;;;5037281;28;20029;-95
2021/11/14 08:56:48;;;;;;;12.02;9.60;;;11.00;99.90;;;;;;5050485;28;20432;-95
2021/11/14 08:59:14;;;;;;;12.23;9.80;;;11.20;99.90;;;;;;5021680;28;20029;-92
2021/11/14 09:01:40;;;;;;;11.07;9.00;;;11.10;99.90;;;;;;5041379;28;20025;-95
2021/11/14 09:04:07;;;;;;;11.15;7.97;;;11.80;99.90;;;;;;5045777;28;20474;-94
2021/11/14 09:06:35;;;;;;;10.95;8.45;;;11.60;99.90;;;;;;5040682;28;20445;-96
2021/11/14 09:09:00;;;;;;;10.05;7.90;;;12.40;99.90;;;;;;5018975;28;20064;-96
2021/11/14 09:11:26;;;;;;;9.32;7.63;;;12.30;99.90;;;;;;5045966;28;20021;-96
2021/11/14 09:13:52;;;;;;;9.02;7.90;;;12.50;99.90;;;;;;5022829;28;20034;-96
2021/11/14 09:16:19;;;;;;;12.20;8.77;;;11.90;99.90;;;;;;5039219;28;20383;-96
2021/11/14 09:18:45;;;;;;;9.43;7.97;;;12.00;99.90;;;;;;5062251;28;20033;-96
2021/11/14 09:21:11;;;;;;;10.90;7.95;;;12.20;99.90;;;;;;5040335;28;20017;-96
2021/11/14 09:23:37;;;;;;;10.43;8.40;;;13.00;99.90;;;;;;5057377;28;20616;-96
2021/11/14 09:26:03;;;;;;;10.02;7.60;;;12.10;99.90;;;;;;5044816;28;20021;-96
2021/11/14 09:28:28;;;;;;;10.93;8.13;;;11.60;99.90;;;;;;5041139;28;21042;-93
2021/11/14 09:30:55;;;;;;;10.77;8.10;;;11.40;99.90;;;;;;5057715;28;20025;-96
2021/11/14 09:33:26;;;;;;;13.23;9.98;;;11.10;99.90;;;;;;5053015;28;20038;-95
2021/11/14 09:35:53;;;;;;;8.23;6.90;;;11.30;99.90;;;;;;5064010;28;20033;-94
2021/11/14 09:38:19;;;;;;;31.98;28.63;;;11.00;99.90;;;;;;5048213;28;20482;-94
2021/11/14 09:40:45;;;;;;;118.78;98.75;;;11.10;99.90;;;;;;5038633;28;20148;-94
2021/11/14 09:43:13;;;;;;;32.50;25.20;;;11.10;99.90;;;;;;5038735;28;20060;-94
2021/11/14 09:45:38;;;;;;;11.35;8.85;;;11.50;99.90;;;;;;5033800;28;20029;-95
2021/11/14 09:48:05;;;;;;;14.10;11.82;;;11.40;99.90;;;;;;5036135;28;20128;-95
2021/11/14 09:50:33;;;;;;;8.25;6.40;;;10.80;99.90;;;;;;5049680;28;20059;-95
2021/11/14 09:52:58;;;;;;;15.60;11.57;;;10.80;99.90;;;;;;5053120;28;20115;-95
2021/11/14 09:55:25;;;;;;;50.45;31.85;;;10.90;99.90;;;;;;5037126;28;20147;-94
2021/11/14 09:57:52;;;;;;;18.13;13.35;;;11.00;99.90;;;;;;5031273;28;20401;-94
2021/11/14 10:00:20;;;;;;;9.50;7.65;;;11.70;99.90;;;;;;5031394;28;20116;-94
2021/11/14 10:02:46;;;;;;;13.68;11.98;;;11.30;99.90;;;;;;5054257;28;20551;-94
2021/11/14 10:05:14;;;;;;;6.05;5.45;;;11.70;99.90;;;;;;5046233;28;20033;-93
2021/11/14 10:07:52;;;;;;;8.27;7.18;;;13.90;99.90;;;;;;5047977;28;20060;-92
2021/11/14 10:10:17;;;;;;;7.82;5.78;;;14.70;99.90;;;;;;5050443;28;20032;-96
2021/11/14 10:12:43;;;;;;;26.23;19.50;;;14.60;99.90;;;;;;5052854;28;20049;-96
2021/11/14 10:15:09;;;;;;;15.77;11.52;;;15.70;99.90;;;;;;5055855;28;20027;-96
2021/11/14 10:17:35;;;;;;;19.20;15.20;;;15.10;99.90;;;;;;5041132;28;20026;-96
2021/11/14 10:20:05;;;;;;;6.45;4.72;;;14.50;99.90;;;;;;5036087;28;20025;-96
2021/11/14 10:22:32;;;;;;;18.20;14.52;;;14.10;99.90;;;;;;5048252;28;20041;-96
2021/11/14 10:24:58;;;;;;;9.25;7.53;;;13.70;99.90;;;;;;5037771;28;20024;-96
2021/11/14 10:27:28;;;;;;;19.13;15.52;;;13.10;99.90;;;;;;5047061;28;20033;-93
2021/11/14 10:29:54;;;;;;;5.20;3.92;;;12.90;99.90;;;;;;5053505;28;20028;-95
2021/11/14 10:32:21;;;;;;;12.20;9.98;;;12.80;99.90;;;;;;5046308;28;20033;-94
2021/11/14 10:35:04;;;;;;;4.15;3.75;;;12.70;99.90;;;;;;5048259;28;20059;-95
2021/11/14 10:37:44;;;;;;;4.30;3.78;;;12.60;99.90;;;;;;5045626;28;20051;-95
2021/11/14 10:40:17;;;;;;;5.00;3.20;;;12.50;99.90;;;;;;5039863;28;20005;-96
2021/11/14 10:42:46;;;;;;;4.70;3.17;;;12.60;99.90;;;;;;5076038;28;20073;-96
2021/11/14 10:45:12;;;;;;;3.42;2.97;;;12.40;99.90;;;;;;5065236;28;20025;-96
2021/11/14 10:47:38;;;;;;;6.95;5.60;;;12.10;99.90;;;;;;5053628;28;20541;-96
2021/11/14 10:50:11;;;;;;;10.20;6.68;;;11.90;99.90;;;;;;5039260;28;20056;-96
2021/11/14 10:52:37;;;;;;;14.23;12.27;;;12.10;99.90;;;;;;5048140;28;20025;-95
2021/11/14 10:55:06;;;;;;;16.85;13.52;;;11.80;99.90;;;;;;5046029;28;20178;-95
2021/11/14 10:57:34;;;;;;;44.03;29.10;;;11.70;99.90;;;;;;5045842;28;20037;-93
2021/11/14 11:00:01;;;;;;;9.50;6.32;;;11.60;99.90;;;;;;5052511;28;20059;-93
2021/11/14 11:02:28;;;;;;;10.27;7.45;;;11.50;99.90;;;;;;5039517;28;20029;-95
2021/11/14 11:04:54;;;;;;;23.20;16.27;;;11.70;99.90;;;;;;5037115;28;20509;-94
2021/11/14 11:07:21;;;;;;;3.72;3.00;;;13.20;99.90;;;;;;5046610;28;20474;-92
2021/11/14 11:09:54;;;;;;;6.88;4.80;;;14.50;99.90;;;;;;5044731;28;20512;-92
2021/11/14 11:12:26;;;;;;;6.72;4.60;;;15.90;99.90;;;;;;5013869;28;20048;-92
2021/11/14 11:15:06;;;;;;;2.97;2.55;;;17.00;99.90;;;;;;5044852;28;20020;-93
2021/11/14 11:17:47;;;;;;;2.92;2.63;;;15.00;99.90;;;;;;5050218;28;20064;-93
2021/11/14 11:20:17;;;;;;;10.50;7.47;;;14.30;99.90;;;;;;5036342;28;20045;-96
2021/11/14 11:22:46;;;;;;;5.07;2.88;;;14.10;99.90;;;;;;5045678;28;20098;-93
2021/11/14 11:25:12;;;;;;;3.72;3.20;;;13.80;99.90;;;;;;5034577;28;20440;-94
2021/11/14 11:27:38;;;;;;;2.80;2.50;;;13.70;99.90;;;;;;5045558;28;20025;-96
2021/11/14 11:30:04;;;;;;;13.43;8.35;;;13.10;99.90;;;;;;5052062;28;20033;-96
2021/11/14 11:32:30;;;;;;;9.77;7.18;;;12.60;99.90;;;;;;5034573;28;20013;-93
2021/11/14 11:34:57;;;;;;;69.80;40.25;;;12.40;99.90;;;;;;5042352;28;20505;-92
2021/11/14 11:37:23;;;;;;;22.90;13.68;;;12.30;99.90;;;;;;5043601;28;20051;-96
2021/11/14 11:39:48;;;;;;;48.13;26.75;;;12.30;99.90;;;;;;5046695;28;20017;-91
2021/11/14 11:42:15;;;;;;;29.23;17.05;;;12.40;99.90;;;;;;5047494;28;20056;-96
2021/11/14 11:44:41;;;;;;;39.15;22.38;;;12.50;99.90;;;;;;5051740;28;20013;-96
2021/11/14 11:47:10;;;;;;;8.88;5.85;;;12.50;99.90;;;;;;5046536;28;20025;-93
2021/11/14 11:49:38;;;;;;;20.05;11.20;;;12.40;99.90;;;;;;5033540;28;20048;-95
2021/11/14 11:52:13;;;;;;;24.25;14.00;;;12.60;99.90;;;;;;5036528;28;20032;-96
2021/11/14 11:54:42;;;;;;;24.42;14.05;;;12.90;99.90;;;;;;5052106;28;20079;-96
2021/11/14 11:57:11;;;;;;;5.28;3.90;;;12.60;99.90;;;;;;5052510;28;20041;-96
2021/11/14 11:59:48;;;;;;;10.95;7.47;;;12.80;99.90;;;;;;5034674;28;20108;-96
2021/11/14 12:02:21;;;;;;;3.00;2.58;;;12.70;99.90;;;;;;5044356;28;20035;-96
2021/11/14 12:04:50;;;;;;;8.00;5.70;;;12.60;99.90;;;;;;5033930;28;20096;-96
2021/11/14 12:07:29;;;;;;;18.67;11.57;;;12.80;99.90;;;;;;5022045;28;20033;-96
2021/11/14 12:09:58;;;;;;;17.88;11.70;;;12.30;99.90;;;;;;5017091;28;20048;-96
2021/11/14 12:12:47;;;;;;;44.90;26.80;;;12.30;99.90;;;;;;5026365;28;20030;-96
2021/11/14 12:15:21;;;;;;;12.07;8.70;;;12.50;99.90;;;;;;5037559;28;20030;-96
2021/11/14 12:18:18;;;;;;;9.77;6.50;;;12.80;99.90;;;;;;5050368;28;20029;-96
2021/11/14 12:20:49;;;;;;;14.68;8.73;;;12.80;99.90;;;;;;5050367;28;20179;-95
2021/11/14 12:23:23;;;;;;;8.02;4.70;;;13.00;99.90;;;;;;5053345;28;20482;-96
2021/11/14 12:25:51;;;;;;;16.88;11.30;;;12.90;99.90;;;;;;5051572;28;20025;-93
2021/11/14 12:28:20;;;;;;;70.72;45.53;;;12.90;99.90;;;;;;5050765;28;20087;-94
2021/11/14 12:30:58;;;;;;;5.55;4.97;;;12.80;99.90;;;;;;5049294;28;20036;-90
2021/11/14 12:33:26;;;;;;;27.05;20.83;;;12.70;99.90;;;;;;5018020;28;20108;-89
2021/11/14 12:35:54;;;;;;;20.42;15.27;;;12.60;99.90;;;;;;5041210;28;20048;-89